Time;durP1;ratioP1;P1;durP2;ratioP2;P2;SDS_P1;SDS_P2;PMS_P1;PMS_P2;Temp;Humidity;BMP_temperature;BMP_pressure;BME280_temperature;BME280_humidity;BME280_pressure;Samples;Min_cycle;Max_cycle;Signal;HPM_P1;HPM_P2
2023/10/29 00:02:07;;;;;;;3.05;2.67;;;10.90;99.90;;;;;;4999571;28;89097;-34
2023/10/29 00:04:35;;;;;;;2.67;2.45;;;11.00;99.90;;;;;;4999456;28;89056;-36
2023/10/29 00:07:03;;;;;;;5.22;3.22;;;10.90;99.90;;;;;;4998973;28;90512;-31
2023/10/29 00:09:29;;;;;;;5.15;2.75;;;11.00;99.90;;;;;;4999707;28;90164;-33
2023/10/29 00:11:54;;;;;;;5.68;3.45;;;11.00;99.90;;;;;;4998941;28;88939;-33
2023/10/29 00:14:20;;;;;;;3.45;3.15;;;11.00;99.90;;;;;;5000282;28;88028;-35
2023/10/29 00:16:45;;;;;;;3.97;3.25;;;11.00;99.90;;;;;;4998846;28;90094;-33
2023/10/29 00:19:11;;;;;;;7.00;3.05;;;11.00;99.90;;;;;;4999535;28;90758;-32
2023/10/29 00:21:37;;;;;;;2.88;2.47;;;11.10;99.90;;;;;;4999165;28;89236;-33
2023/10/29 00:24:03;;;;;;;3.38;3.08;;;11.10;99.90;;;;;;5000004;28;88559;-31
2023/10/29 00:26:29;;;;;;;7.05;3.83;;;11.10;99.90;;;;;;4998970;28;90287;-32
2023/10/29 00:28:54;;;;;;;4.75;4.35;;;11.10;99.90;;;;;;4998736;28;90361;-33
2023/10/29 00:31:20;;;;;;;3.38;3.08;;;11.10;99.90;;;;;;4999033;28;88361;-35
2023/10/29 00:33:46;;;;;;;3.60;2.40;;;11.10;99.90;;;;;;4999010;28;88566;-36
2023/10/29 00:36:12;;;;;;;3.10;2.38;;;11.10;99.90;;;;;;4999790;28;91714;-33
2023/10/29 00:38:37;;;;;;;3.92;2.80;;;11.10;99.90;;;;;;4999118;28;89574;-33
2023/10/29 00:41:03;;;;;;;14.98;4.88;;;11.20;99.90;;;;;;4999470;28;89614;-34
2023/10/29 00:46:06;;;;;;;3.72;3.42;;;11.20;99.90;;;;;;4998867;28;90431;-38
2023/10/29 00:48:32;;;;;;;3.33;2.42;;;11.20;99.90;;;;;;4999957;28;89904;-36
2023/10/29 00:50:59;;;;;;;3.38;3.08;;;11.20;99.90;;;;;;4998717;28;88711;-34
2023/10/29 00:53:25;;;;;;;4.70;3.67;;;11.20;99.90;;;;;;4998616;28;89842;-32
2023/10/29 00:55:51;;;;;;;4.88;3.17;;;11.30;99.90;;;;;;4999288;28;90167;-35
2023/10/29 00:58:19;;;;;;;2.67;2.20;;;11.30;99.90;;;;;;4998699;28;89566;-35
2023/10/29 01:00:45;;;;;;;3.15;2.60;;;11.30;99.90;;;;;;4998569;28;89462;-34
2023/10/29 01:03:11;;;;;;;4.47;3.03;;;11.30;99.90;;;;;;4998931;28;89847;-32
2023/10/29 01:05:37;;;;;;;3.05;2.53;;;11.30;99.90;;;;;;4997601;28;90983;-33
2023/10/29 01:08:05;;;;;;;8.25;3.20;;;11.40;99.90;;;;;;4999727;28;90109;-34
2023/10/29 01:10:34;;;;;;;6.47;3.13;;;11.40;99.90;;;;;;4998816;28;89083;-35
2023/10/29 01:12:59;;;;;;;;;;;11.40;99.90;;;;;;4999600;28;88185;-34
2023/10/29 01:15:25;;;;;;;3.50;2.05;;;11.40;99.90;;;;;;4999760;28;90504;-34
2023/10/29 01:17:51;;;;;;;3.80;3.45;;;11.40;99.90;;;;;;4998564;28;90061;-34
2023/10/29 01:20:17;;;;;;;4.20;3.90;;;11.40;99.90;;;;;;4998481;28;89463;-33
2023/10/29 01:22:43;;;;;;;3.33;3.03;;;11.40;99.90;;;;;;4998214;28;88777;-36
2023/10/29 01:25:10;;;;;;;4.57;3.55;;;11.40;99.90;;;;;;4998774;28;90432;-34
2023/10/29 01:27:37;;;;;;;6.85;3.85;;;11.50;99.90;;;;;;4998312;28;89751;-33
2023/10/29 01:30:05;;;;;;;4.13;2.85;;;11.50;99.90;;;;;;4997808;28;90529;-34
2023/10/29 01:32:31;;;;;;;3.97;2.33;;;11.50;99.90;;;;;;4999185;28;90210;-36
2023/10/29 01:34:56;;;;;;;3.65;3.33;;;11.50;99.90;;;;;;4997219;28;92079;-31
2023/10/29 01:37:22;;;;;;;4.68;2.60;;;11.50;99.90;;;;;;4998073;28;90139;-35
2023/10/29 01:39:47;;;;;;;4.63;3.65;;;11.50;99.90;;;;;;4998466;28;89977;-35
2023/10/29 01:42:13;;;;;;;3.17;2.83;;;11.60;99.90;;;;;;4998801;28;88934;-33
2023/10/29 01:44:38;;;;;;;4.38;3.20;;;11.60;99.90;;;;;;4997223;28;89730;-34
2023/10/29 01:47:04;;;;;;;3.85;3.28;;;11.60;99.90;;;;;;4998577;28;90321;-35
2023/10/29 01:49:31;;;;;;;4.65;2.85;;;11.60;99.90;;;;;;4997553;28;89151;-34
2023/10/29 01:51:56;;;;;;;4.10;2.90;;;11.70;99.90;;;;;;4999240;28;87933;-33
2023/10/29 01:54:22;;;;;;;4.07;2.92;;;11.70;99.90;;;;;;4996944;28;90664;-33
2023/10/29 01:56:48;;;;;;;3.28;2.85;;;11.70;99.90;;;;;;4998033;28;88613;-35
2023/10/29 01:59:14;;;;;;;2.88;2.67;;;11.70;99.90;;;;;;4997760;28;91043;-34
2023/10/29 02:01:40;;;;;;;6.75;3.08;;;11.70;99.90;;;;;;4998096;28;90660;-37
2023/10/29 02:04:12;;;;;;;2.85;2.42;;;11.70;99.90;;;;;;4998055;28;90127;-36
2023/10/29 02:06:41;;;;;;;3.03;2.83;;;11.80;99.90;;;;;;4998592;28;90096;-33
2023/10/29 02:09:10;;;;;;;3.92;2.72;;;11.80;99.90;;;;;;4997734;28;89935;-32
2023/10/29 02:11:37;;;;;;;4.88;3.00;;;11.80;99.90;;;;;;4997359;28;88597;-33
2023/10/29 02:14:03;;;;;;;3.42;2.70;;;11.80;99.90;;;;;;4998266;28;88951;-35
2023/10/29 02:16:29;;;;;;;4.72;1.88;;;11.80;99.90;;;;;;4997251;28;89798;-34
2023/10/29 02:18:54;;;;;;;2.30;2.00;;;11.80;99.90;;;;;;4997918;28;88612;-34
2023/10/29 02:21:22;;;;;;;2.95;2.67;;;11.90;99.90;;;;;;4996795;28;88505;-36
2023/10/29 02:23:48;;;;;;;3.13;2.33;;;11.90;99.90;;;;;;4998170;28;90428;-36
2023/10/29 02:26:14;;;;;;;2.28;2.08;;;11.90;99.90;;;;;;4996578;28;89647;-34
2023/10/29 02:28:39;;;;;;;2.33;2.13;;;11.90;99.90;;;;;;4998591;28;89698;-34
2023/10/29 02:31:05;;;;;;;3.50;2.53;;;11.90;99.90;;;;;;5001171;28;87832;-33
2023/10/29 02:33:31;;;;;;;2.60;2.40;;;11.90;99.90;;;;;;5000563;28;91390;-35
2023/10/29 02:35:57;;;;;;;4.50;2.85;;;11.80;99.90;;;;;;5000374;28;90100;-36
2023/10/29 02:38:25;;;;;;;2.75;2.50;;;11.90;99.90;;;;;;5001069;28;88716;-34
2023/10/29 02:40:51;;;;;;;5.07;2.47;;;11.90;99.90;;;;;;5001259;28;89820;-35
2023/10/29 02:43:16;;;;;;;2.95;2.75;;;11.90;99.90;;;;;;4999379;28;89881;-34
2023/10/29 02:45:42;;;;;;;2.50;2.28;;;11.90;99.90;;;;;;5000942;28;90301;-32
2023/10/29 02:48:08;;;;;;;2.42;2.05;;;11.90;99.90;;;;;;5000472;28;90427;-31
2023/10/29 02:50:39;;;;;;;9.50;2.20;;;11.90;99.90;;;;;;5001372;28;89489;-36
2023/10/29 02:53:05;;;;;;;3.03;2.10;;;11.90;99.90;;;;;;5000281;28;90224;-34
2023/10/29 02:55:31;;;;;;;3.95;2.30;;;11.90;99.90;;;;;;5001022;28;89813;-35
2023/10/29 02:57:56;;;;;;;2.50;1.70;;;11.90;99.90;;;;;;5000523;28;88377;-33
2023/10/29 03:00:23;;;;;;;3.17;2.22;;;12.00;99.90;;;;;;5001743;28;90232;-34
2023/10/29 03:02:48;;;;;;;2.03;1.83;;;12.00;99.90;;;;;;4999780;28;90848;-32
2023/10/29 03:05:14;;;;;;;5.90;2.20;;;12.00;99.90;;;;;;5001025;28;89621;-36
2023/10/29 03:07:39;;;;;;;4.60;2.63;;;12.00;99.90;;;;;;4999460;28;89638;-34
2023/10/29 03:10:05;;;;;;;2.63;1.90;;;12.10;99.90;;;;;;5000411;28;88263;-36
2023/10/29 03:12:31;;;;;;;8.65;2.00;;;12.10;99.90;;;;;;5000653;28;90978;-36
2023/10/29 03:14:57;;;;;;;3.38;1.85;;;12.10;99.90;;;;;;4999925;28;90156;-34
2023/10/29 03:17:22;;;;;;;2.15;1.92;;;12.10;99.90;;;;;;5001143;28;89391;-34
2023/10/29 03:19:48;;;;;;;2.70;2.25;;;12.10;99.90;;;;;;4999617;28;87926;-33
2023/10/29 03:22:14;;;;;;;2.33;1.73;;;12.10;99.90;;;;;;5000540;28;90396;-31
2023/10/29 03:24:39;;;;;;;2.25;2.05;;;12.10;99.90;;;;;;4999500;28;90464;-33
2023/10/29 03:27:05;;;;;;;2.38;1.95;;;12.20;99.90;;;;;;5000091;28;88651;-34
2023/10/29 03:29:31;;;;;;;2.00;1.90;;;12.20;99.90;;;;;;5000906;28;88262;-35
2023/10/29 03:31:56;;;;;;;2.75;1.85;;;12.20;99.90;;;;;;4998622;28;90287;-34
2023/10/29 03:34:22;;;;;;;3.17;1.92;;;12.30;99.90;;;;;;5000296;28;89535;-35
2023/10/29 03:36:48;;;;;;;2.50;1.77;;;12.30;99.90;;;;;;5000009;28;89698;-32
2023/10/29 03:39:13;;;;;;;1.88;1.60;;;12.30;99.90;;;;;;5000279;28;89470;-37
2023/10/29 03:41:39;;;;;;;3.00;1.95;;;12.40;99.90;;;;;;4999283;28;90215;-36
2023/10/29 03:44:06;;;;;;;2.00;1.50;;;12.40;99.90;;;;;;5000012;28;90210;-33
2023/10/29 03:46:32;;;;;;;1.92;1.63;;;12.40;99.90;;;;;;4999362;28;90001;-36
2023/10/29 03:48:57;;;;;;;2.75;2.00;;;12.40;99.90;;;;;;5000375;28;89042;-33
2023/10/29 03:51:28;;;;;;;2.30;1.92;;;12.40;99.90;;;;;;4981126;28;90534;-35
2023/10/29 03:53:54;;;;;;;1.98;1.65;;;12.40;99.90;;;;;;4998982;28;89744;-31
2023/10/29 03:56:19;;;;;;;2.35;1.95;;;12.50;99.90;;;;;;4998844;28;89438;-34
2023/10/29 03:58:45;;;;;;;1.50;1.40;;;12.50;99.90;;;;;;5000153;28;87649;-35
2023/10/29 04:01:14;;;;;;;3.20;1.92;;;12.40;99.90;;;;;;4999032;28;90361;-34
2023/10/29 04:03:40;;;;;;;2.15;1.92;;;12.40;99.90;;;;;;4999680;28;89418;-33
2023/10/29 04:06:10;;;;;;;3.13;1.65;;;12.40;99.90;;;;;;4999935;28;90192;-35
2023/10/29 04:08:36;;;;;;;2.97;1.70;;;12.40;99.90;;;;;;4999416;28;89836;-35
2023/10/29 04:11:02;;;;;;;4.78;2.35;;;12.50;99.90;;;;;;4999500;28;89097;-32
2023/10/29 04:13:27;;;;;;;3.28;1.83;;;12.50;99.90;;;;;;4999817;28;89081;-33
2023/10/29 04:15:53;;;;;;;2.38;1.75;;;12.50;99.90;;;;;;4999204;28;89325;-34
2023/10/29 04:18:19;;;;;;;2.55;1.55;;;12.50;99.90;;;;;;4999740;28;88693;-35
2023/10/29 04:20:45;;;;;;;2.13;1.95;;;12.60;99.90;;;;;;4999102;28;89999;-35
2023/10/29 04:23:11;;;;;;;8.13;2.03;;;12.70;99.90;;;;;;4998815;28;89768;-36
2023/10/29 04:25:36;;;;;;;1.70;1.30;;;12.70;99.90;;;;;;4999269;28;89558;-34
2023/10/29 04:28:02;;;;;;;1.95;1.55;;;12.70;99.90;;;;;;4998566;28;89406;-33
2023/10/29 04:30:27;;;;;;;2.55;1.77;;;12.70;99.90;;;;;;4981114;28;90498;-33
2023/10/29 04:32:53;;;;;;;6.03;1.55;;;12.80;99.90;;;;;;4998736;28;89983;-35
2023/10/29 04:35:19;;;;;;;1.67;1.38;;;12.80;99.90;;;;;;4998676;28;89034;-35
2023/10/29 04:37:44;;;;;;;2.35;1.40;;;12.80;99.90;;;;;;4999815;28;88160;-36
2023/10/29 04:40:10;;;;;;;1.98;1.75;;;12.80;99.90;;;;;;4998113;28;90329;-34
2023/10/29 04:42:36;;;;;;;1.70;1.00;;;12.80;99.90;;;;;;4998586;28;89704;-35
2023/10/29 04:45:01;;;;;;;3.55;2.17;;;12.90;99.90;;;;;;4997948;28;90911;-35
2023/10/29 04:47:27;;;;;;;1.92;1.75;;;12.90;99.90;;;;;;4999592;28;87679;-35
2023/10/29 04:49:52;;;;;;;1.80;1.33;;;12.90;99.90;;;;;;4997979;28;91331;-33
2023/10/29 04:52:18;;;;;;;3.90;2.13;;;12.90;99.90;;;;;;4998101;28;90473;-34
2023/10/29 04:54:44;;;;;;;2.10;1.20;;;12.90;99.90;;;;;;4997477;28;90250;-34
2023/10/29 04:57:09;;;;;;;1.95;1.45;;;12.90;99.90;;;;;;4999095;28;89016;-34
2023/10/29 04:59:36;;;;;;;1.75;1.58;;;12.90;99.90;;;;;;4998339;28;90294;-37
2023/10/29 05:02:03;;;;;;;1.42;1.00;;;12.90;99.90;;;;;;4998198;28;89784;-32
2023/10/29 05:04:29;;;;;;;2.17;1.33;;;12.90;99.90;;;;;;4998678;28;89627;-34
2023/10/29 05:06:54;;;;;;;3.58;1.73;;;13.00;99.90;;;;;;4999395;28;88140;-33
2023/10/29 05:09:20;;;;;;;6.03;1.58;;;13.00;99.90;;;;;;4997759;28;89861;-35
2023/10/29 05:11:47;;;;;;;1.67;1.45;;;13.00;99.90;;;;;;4992417;28;90192;-35
2023/10/29 05:14:13;;;;;;;1.10;1.00;;;13.00;99.90;;;;;;4999508;28;90170;-32
2023/10/29 05:16:39;;;;;;;1.77;1.27;;;13.00;99.90;;;;;;4998080;28;87631;-33
2023/10/29 05:19:04;;;;;;;1.20;1.10;;;13.00;99.90;;;;;;4998690;28;89729;-36
2023/10/29 05:21:30;;;;;;;1.23;1.00;;;13.00;99.90;;;;;;4979496;28;89794;-33
2023/10/29 05:23:56;;;;;;;2.55;1.00;;;13.00;99.90;;;;;;4998860;28;90744;-37
2023/10/29 05:26:21;;;;;;;3.28;1.42;;;13.00;99.90;;;;;;4998897;28;88487;-34
2023/10/29 05:28:47;;;;;;;3.08;1.67;;;13.00;99.90;;;;;;4997338;28;90636;-34
2023/10/29 05:31:13;;;;;;;1.17;1.08;;;13.00;99.90;;;;;;4999065;28;90548;-34
2023/10/29 05:33:38;;;;;;;1.80;1.70;;;13.00;99.90;;;;;;4996074;28;89819;-34
2023/10/29 05:36:04;;;;;;;5.90;1.40;;;13.00;99.90;;;;;;4998729;28;89127;-36
2023/10/29 05:38:30;;;;;;;0.95;0.95;;;13.00;99.90;;;;;;4997416;28;91778;-35
2023/10/29 05:40:56;;;;;;;3.63;1.05;;;13.00;99.90;;;;;;4998678;28;90499;-33
2023/10/29 05:43:21;;;;;;;2.80;1.63;;;13.00;99.90;;;;;;4998211;28;89458;-35
2023/10/29 05:45:47;;;;;;;1.50;1.40;;;13.00;99.90;;;;;;4997872;28;88330;-34
2023/10/29 05:48:12;;;;;;;4.32;1.38;;;12.90;99.90;;;;;;4998558;28;90297;-32
2023/10/29 05:50:39;;;;;;;1.98;1.48;;;12.90;99.90;;;;;;4997358;28;89856;-35
2023/10/29 05:53:05;;;;;;;2.47;0.85;;;13.00;99.90;;;;;;4997697;28;89943;-37
2023/10/29 05:55:30;;;;;;;1.63;1.05;;;13.00;99.90;;;;;;5033879;22;90519;-33
2023/10/29 05:57:58;;;;;;;1.60;0.85;;;13.00;99.90;;;;;;4981884;28;91268;-35
2023/10/29 06:00:23;;;;;;;1.10;1.00;;;13.00;99.90;;;;;;4990523;28;89305;-36
2023/10/29 06:02:49;;;;;;;1.60;1.30;;;13.00;99.90;;;;;;4995451;28;89436;-34
2023/10/29 06:05:14;;;;;;;6.15;1.38;;;13.00;99.90;;;;;;4983185;28;90350;-36
2023/10/29 06:07:44;;;;;;;1.40;1.10;;;13.10;99.90;;;;;;4988708;28;90842;-33
2023/10/29 06:10:15;;;;;;;3.92;1.52;;;13.10;99.90;;;;;;5001555;28;89684;-32
2023/10/29 06:12:41;;;;;;;2.13;1.30;;;13.10;99.90;;;;;;4990419;28;89301;-33
2023/10/29 06:15:11;;;;;;;3.10;1.80;;;13.10;99.90;;;;;;4986720;28;87922;-34
2023/10/29 06:17:37;;;;;;;3.70;1.55;;;13.10;99.90;;;;;;4989817;28;91197;-34
2023/10/29 06:20:08;;;;;;;1.80;1.65;;;13.20;99.90;;;;;;4994978;28;89545;-35
2023/10/29 06:22:34;;;;;;;0.95;0.88;;;13.20;99.90;;;;;;4981112;28;89990;-32
2023/10/29 06:25:00;;;;;;;1.52;1.05;;;13.20;99.90;;;;;;5001356;28;89572;-34
2023/10/29 06:27:25;;;;;;;1.20;1.10;;;13.10;99.90;;;;;;5001235;28;90641;-33
2023/10/29 06:29:51;;;;;;;1.20;1.00;;;13.10;99.90;;;;;;5001753;28;89608;-37
2023/10/29 06:32:16;;;;;;;1.60;1.00;;;13.20;99.90;;;;;;5000045;28;88723;-34
2023/10/29 06:34:42;;;;;;;2.42;1.15;;;13.20;99.90;;;;;;5000936;28;89739;-36
2023/10/29 06:37:08;;;;;;;1.30;1.02;;;13.10;99.90;;;;;;4982267;28;90566;-32
2023/10/29 06:39:33;;;;;;;2.05;1.33;;;13.10;99.90;;;;;;4993675;28;89813;-33
2023/10/29 06:41:59;;;;;;;1.50;0.80;;;13.10;99.90;;;;;;4988446;28;89543;-32
2023/10/29 06:44:24;;;;;;;2.22;1.17;;;13.10;99.90;;;;;;4989899;28;89247;-33
2023/10/29 06:46:51;;;;;;;3.03;1.00;;;13.20;99.90;;;;;;4994966;28;90415;-37
2023/10/29 06:49:16;;;;;;;1.48;1.13;;;13.20;99.90;;;;;;4983825;28;90057;-33
2023/10/29 06:51:42;;;;;;;3.33;1.20;;;13.10;99.90;;;;;;4983967;28;90476;-33
2023/10/29 06:54:08;;;;;;;4.03;1.45;;;13.10;99.90;;;;;;4993959;28;87688;-34
2023/10/29 06:56:33;;;;;;;2.47;0.80;;;13.20;99.90;;;;;;4988346;28;90130;-35
2023/10/29 06:58:59;;;;;;;0.98;0.93;;;13.10;99.90;;;;;;5000872;28;89498;-36
2023/10/29 07:01:24;;;;;;;1.15;0.98;;;13.10;99.90;;;;;;4984455;28;90117;-34
2023/10/29 07:03:50;;;;;;;1.35;0.75;;;13.10;99.90;;;;;;4994325;28;88693;-33
2023/10/29 07:06:16;;;;;;;1.13;1.00;;;13.00;99.90;;;;;;4995127;28;89766;-33
2023/10/29 07:08:45;;;;;;;3.40;1.35;;;13.10;99.90;;;;;;4993073;28;89838;-33
2023/10/29 07:11:10;;;;;;;2.03;1.40;;;13.20;99.90;;;;;;4999068;28;89089;-36
2023/10/29 07:13:36;;;;;;;3.97;2.05;;;13.20;99.90;;;;;;4999106;28;90473;-31
2023/10/29 07:16:03;;;;;;;2.90;1.38;;;13.20;99.90;;;;;;5000268;28;90407;-32
2023/10/29 07:18:28;;;;;;;1.50;1.20;;;13.30;99.90;;;;;;4990989;28;89501;-37
2023/10/29 07:20:55;;;;;;;3.72;1.55;;;13.30;99.90;;;;;;4981582;28;89876;-34
2023/10/29 07:23:22;;;;;;;2.00;1.30;;;13.30;99.90;;;;;;4998973;28;87810;-33
2023/10/29 07:25:49;;;;;;;2.95;1.23;;;13.30;99.90;;;;;;4989570;28;90086;-35
2023/10/29 07:28:15;;;;;;;1.52;1.17;;;13.30;99.90;;;;;;5000076;28;89518;-32
2023/10/29 07:30:41;;;;;;;2.72;1.65;;;13.40;99.90;;;;;;4993751;28;89094;-33
2023/10/29 07:33:09;;;;;;;4.65;1.42;;;13.40;99.90;;;;;;4962228;28;90028;-34
2023/10/29 07:35:35;;;;;;;2.65;0.98;;;13.40;99.90;;;;;;4982805;28;90034;-35
2023/10/29 07:38:01;;;;;;;6.35;1.15;;;13.30;99.90;;;;;;4989491;28;90617;-34
2023/10/29 07:40:27;;;;;;;1.38;1.20;;;13.30;99.90;;;;;;4987326;28;89437;-34
2023/10/29 07:42:52;;;;;;;3.28;1.33;;;13.30;99.90;;;;;;4989294;28;89239;-35
2023/10/29 07:45:18;;;;;;;1.23;0.90;;;13.30;99.90;;;;;;4986162;28;90204;-36
2023/10/29 07:47:43;;;;;;;4.75;1.60;;;13.40;99.90;;;;;;4983368;28;89568;-33
2023/10/29 07:50:12;;;;;;;2.78;1.45;;;13.30;99.90;;;;;;4996539;28;89713;-33
2023/10/29 07:52:39;;;;;;;1.70;1.40;;;13.40;99.90;;;;;;4983550;28;87667;-38
2023/10/29 07:55:07;;;;;;;4.63;1.70;;;13.40;99.90;;;;;;4990007;28;90445;-32
2023/10/29 07:57:33;;;;;;;2.95;1.60;;;13.40;99.90;;;;;;4999163;28;90390;-38
2023/10/29 07:59:59;;;;;;;3.60;1.63;;;13.50;99.90;;;;;;4983807;28;90819;-36
2023/10/29 08:02:25;;;;;;;2.28;1.30;;;13.50;99.90;;;;;;4985364;28;89283;-34
2023/10/29 08:04:50;;;;;;;1.75;1.40;;;13.50;99.90;;;;;;4994821;28;91131;-35
2023/10/29 08:07:16;;;;;;;4.15;1.30;;;13.50;99.90;;;;;;4994887;28;89855;-33
2023/10/29 08:09:42;;;;;;;2.38;1.63;;;13.60;99.90;;;;;;4995081;28;89576;-33
2023/10/29 08:12:08;;;;;;;9.88;2.08;;;13.60;99.90;;;;;;4993005;28;88860;-33
2023/10/29 08:14:33;;;;;;;1.98;1.00;;;13.60;99.90;;;;;;4981010;28;90346;-36
2023/10/29 08:16:59;;;;;;;2.55;1.38;;;13.60;99.90;;;;;;4992365;28;89531;-36
2023/10/29 08:19:26;;;;;;;2.40;1.65;;;13.70;99.90;;;;;;4979878;28;89194;-36
2023/10/29 08:21:52;;;;;;;1.20;1.10;;;13.70;99.90;;;;;;4980447;28;90265;-33
2023/10/29 08:24:18;;;;;;;8.23;1.33;;;13.70;99.90;;;;;;4978579;28;90220;-33
2023/10/29 08:26:43;;;;;;;1.13;0.80;;;13.70;99.90;;;;;;4964505;28;90282;-33
2023/10/29 08:29:11;;;;;;;4.32;1.48;;;13.70;99.90;;;;;;4991236;28;89831;-32
2023/10/29 08:31:37;;;;;;;3.43;1.77;;;13.60;99.90;;;;;;4994323;28;88561;-37
2023/10/29 08:34:02;;;;;;;3.45;1.75;;;13.70;99.90;;;;;;4990841;28;90349;-34
2023/10/29 08:36:28;;;;;;;2.35;1.33;;;13.70;99.90;;;;;;4981673;28;89812;-33
2023/10/29 08:38:54;;;;;;;2.88;1.40;;;13.80;99.90;;;;;;4982085;28;89510;-36
2023/10/29 08:41:20;;;;;;;2.78;1.40;;;13.80;99.90;;;;;;4964106;28;90621;-32
2023/10/29 08:43:45;;;;;;;3.13;1.65;;;13.90;99.90;;;;;;4982345;28;89903;-34
2023/10/29 08:46:11;;;;;;;4.20;1.58;;;13.90;99.90;;;;;;4980131;28;89372;-34
2023/10/29 08:48:37;;;;;;;1.65;1.10;;;13.90;99.90;;;;;;4980699;28;90811;-35
2023/10/29 08:51:03;;;;;;;1.20;1.00;;;13.90;99.90;;;;;;4979898;28;88964;-37
2023/10/29 08:53:28;;;;;;;1.83;1.20;;;14.00;99.90;;;;;;4985248;28;92069;-33
2023/10/29 08:55:54;;;;;;;4.30;1.35;;;14.00;99.90;;;;;;4966794;28;90193;-33
2023/10/29 08:58:20;;;;;;;1.85;1.20;;;14.00;99.90;;;;;;4985059;28;90844;-35
2023/10/29 09:00:46;;;;;;;1.75;1.27;;;14.00;99.90;;;;;;4984907;28;89223;-33
2023/10/29 09:03:15;;;;;;;3.55;1.38;;;14.10;99.90;;;;;;4984565;28;90265;-37
2023/10/29 09:05:42;;;;;;;7.50;1.30;;;14.10;99.90;;;;;;4995962;28;89701;-36
2023/10/29 09:08:08;;;;;;;1.20;1.10;;;14.10;99.90;;;;;;4984433;28;88968;-37
2023/10/29 09:10:33;;;;;;;5.50;2.00;;;14.10;99.90;;;;;;4995671;28;88482;-34
2023/10/29 09:12:59;;;;;;;7.95;1.40;;;14.10;99.90;;;;;;4993833;28;90653;-36
2023/10/29 09:15:25;;;;;;;2.05;1.25;;;14.10;99.90;;;;;;4994218;28;88992;-35
2023/10/29 09:17:52;;;;;;;5.03;1.77;;;14.00;99.90;;;;;;4971525;28;89706;-35
2023/10/29 09:20:17;;;;;;;7.30;1.48;;;14.00;99.90;;;;;;4996054;28;87902;-33
2023/10/29 09:22:43;;;;;;;2.45;1.65;;;13.90;99.90;;;;;;4983670;28;89069;-35
2023/10/29 09:25:09;;;;;;;6.70;2.33;;;13.90;99.90;;;;;;4995622;28;90124;-32
2023/10/29 09:27:35;;;;;;;4.28;1.50;;;14.00;99.90;;;;;;4985906;28;89602;-37
2023/10/29 09:30:01;;;;;;;3.58;1.77;;;14.00;99.90;;;;;;4988215;28;88975;-34
2023/10/29 09:32:26;;;;;;;5.13;2.28;;;14.20;99.90;;;;;;4982996;28;90487;-34
2023/10/29 09:34:52;;;;;;;2.28;1.20;;;14.20;99.90;;;;;;4990573;28;88656;-35
2023/10/29 09:37:18;;;;;;;2.55;1.35;;;14.30;99.90;;;;;;4991012;28;89729;-35
2023/10/29 09:39:43;;;;;;;4.00;1.52;;;14.20;99.90;;;;;;4991324;28;88505;-35
2023/10/29 09:42:11;;;;;;;11.02;2.63;;;14.20;99.90;;;;;;4989489;28;90134;-34
2023/10/29 09:44:41;;;;;;;2.10;1.50;;;14.20;99.90;;;;;;4989714;28;89784;-35
2023/10/29 09:47:17;;;;;;;3.20;1.50;;;14.30;99.90;;;;;;4995099;28;87535;-36
2023/10/29 09:49:43;;;;;;;5.63;1.77;;;14.40;99.90;;;;;;4992332;28;87779;-36
2023/10/29 09:52:09;;;;;;;7.35;2.53;;;14.40;99.90;;;;;;4991780;28;90975;-34
2023/10/29 09:54:38;;;;;;;6.07;2.42;;;14.40;99.90;;;;;;4991916;28;89804;-35
2023/10/29 09:57:06;;;;;;;3.65;1.67;;;14.50;99.90;;;;;;4992762;28;89597;-34
2023/10/29 09:59:32;;;;;;;5.43;1.45;;;14.50;99.90;;;;;;4987573;28;89478;-34
2023/10/29 10:01:58;;;;;;;10.05;2.25;;;14.50;99.90;;;;;;4985468;28;90087;-35
2023/10/29 10:04:23;;;;;;;3.08;2.10;;;14.50;99.90;;;;;;4993105;28;89422;-34
2023/10/29 10:06:51;;;;;;;5.28;1.88;;;14.60;99.90;;;;;;4988633;28;89073;-33
2023/10/29 10:09:17;;;;;;;6.20;2.65;;;14.50;99.90;;;;;;4995650;28;89299;-34
2023/10/29 10:11:42;;;;;;;3.50;2.05;;;14.50;99.90;;;;;;4993705;28;91239;-33
2023/10/29 10:14:23;;;;;;;11.27;1.98;;;14.50;99.90;;;;;;4985393;28;89809;-34
2023/10/29 10:17:07;;;;;;;7.47;2.33;;;14.40;99.90;;;;;;4977040;28;89702;-33
2023/10/29 10:19:32;;;;;;;8.57;2.25;;;14.30;99.90;;;;;;4978119;28;87663;-37
2023/10/29 10:21:58;;;;;;;9.25;2.10;;;14.20;99.90;;;;;;4982608;28;91770;-34
2023/10/29 10:24:39;;;;;;;3.35;1.58;;;14.20;99.90;;;;;;4982590;28;89774;-35
2023/10/29 10:27:05;;;;;;;3.30;1.63;;;14.10;99.90;;;;;;4975305;28;89849;-34
2023/10/29 10:29:31;;;;;;;8.75;2.60;;;14.10;99.90;;;;;;4987683;28;88640;-36
2023/10/29 10:32:05;;;;;;;6.45;1.80;;;14.20;99.90;;;;;;4980242;28;90329;-34
2023/10/29 10:34:37;;;;;;;6.18;2.13;;;14.30;99.90;;;;;;4995764;28;89785;-36
2023/10/29 10:37:04;;;;;;;5.03;2.15;;;14.30;99.90;;;;;;4988195;28;89751;-36
2023/10/29 10:39:31;;;;;;;5.75;2.88;;;14.30;99.90;;;;;;4977195;28;88524;-35
2023/10/29 10:42:00;;;;;;;6.88;1.77;;;14.40;99.90;;;;;;4994149;28;90475;-35
2023/10/29 10:44:27;;;;;;;3.75;2.13;;;14.40;99.90;;;;;;4994193;28;90121;-36
2023/10/29 10:46:54;;;;;;;8.37;2.27;;;14.50;99.90;;;;;;4975084;28;89036;-33
2023/10/29 10:49:21;;;;;;;5.95;2.30;;;14.50;99.90;;;;;;4976094;28;88695;-34
2023/10/29 10:51:49;;;;;;;4.50;2.08;;;14.60;99.90;;;;;;4996369;28;90158;-32
2023/10/29 10:54:18;;;;;;;4.07;1.55;;;14.60;99.90;;;;;;4985083;28;89202;-37
2023/10/29 10:56:44;;;;;;;5.32;2.03;;;14.60;99.90;;;;;;4978403;28;90241;-35
2023/10/29 10:59:13;;;;;;;5.35;1.65;;;14.60;99.90;;;;;;4990780;28;89791;-34
2023/10/29 11:01:39;;;;;;;8.55;2.70;;;14.60;99.90;;;;;;4997382;28;90189;-36
2023/10/29 11:04:08;;;;;;;6.20;2.58;;;14.60;99.90;;;;;;4996335;28;89743;-33
2023/10/29 11:06:38;;;;;;;11.30;2.67;;;14.60;99.90;;;;;;4988334;28;88999;-36
2023/10/29 11:09:05;;;;;;;4.80;2.28;;;14.50;99.90;;;;;;4993917;28;89441;-33
2023/10/29 11:11:40;;;;;;;7.72;2.03;;;14.50;99.90;;;;;;4990294;28;90264;-33
2023/10/29 11:14:16;;;;;;;9.57;1.85;;;14.50;99.90;;;;;;4997652;28;89194;-33
2023/10/29 11:16:56;;;;;;;6.65;2.05;;;14.40;99.90;;;;;;4995914;28;89338;-33
2023/10/29 11:19:39;;;;;;;8.80;1.92;;;14.40;99.90;;;;;;4998510;28;88519;-34
2023/10/29 11:22:46;;;;;;;5.88;1.83;;;14.40;99.90;;;;;;4994877;28;89580;-32
2023/10/29 11:25:15;;;;;;;5.07;2.22;;;14.50;99.90;;;;;;4995461;28;90203;-36
2023/10/29 11:27:44;;;;;;;4.07;1.83;;;14.60;99.90;;;;;;4996696;28;90237;-37
2023/10/29 11:30:25;;;;;;;6.40;2.17;;;14.70;99.90;;;;;;4992567;28;88226;-35
2023/10/29 11:33:06;;;;;;;4.00;2.15;;;14.80;99.90;;;;;;4976958;28;90040;-35
2023/10/29 11:35:32;;;;;;;6.30;1.05;;;14.90;99.90;;;;;;4990516;28;90405;-36
2023/10/29 11:38:00;;;;;;;9.05;2.38;;;14.80;99.90;;;;;;4978170;28;90051;-35
2023/10/29 11:40:25;;;;;;;7.72;1.90;;;14.90;99.90;;;;;;4985146;28;87836;-36
2023/10/29 11:42:54;;;;;;;7.65;1.90;;;14.90;99.90;;;;;;4983667;28;89885;-36
2023/10/29 11:45:26;;;;;;;3.70;1.90;;;15.00;99.90;;;;;;4977999;28;91822;-34
2023/10/29 11:48:08;;;;;;;5.40;1.70;;;15.00;99.90;;;;;;4978406;28;91231;-35
2023/10/29 11:50:34;;;;;;;2.50;1.15;;;15.00;99.90;;;;;;4978103;28;90381;-33
2023/10/29 11:53:00;;;;;;;8.63;2.58;;;15.00;99.90;;;;;;4980499;28;90172;-34
2023/10/29 11:55:27;;;;;;;6.47;2.47;;;14.90;99.90;;;;;;4988128;28;89415;-37
2023/10/29 11:57:54;;;;;;;6.30;1.75;;;15.00;99.90;;;;;;4989693;28;89996;-35
2023/10/29 12:00:21;;;;;;;7.75;1.95;;;15.00;99.90;;;;;;4978536;28;89230;-35
2023/10/29 12:02:48;;;;;;;4.07;1.77;;;15.00;99.90;;;;;;4978017;28;89331;-35
2023/10/29 12:05:17;;;;;;;5.25;1.77;;;14.90;99.90;;;;;;4976954;28;89633;-36
2023/10/29 12:07:42;;;;;;;5.75;2.03;;;14.80;99.90;;;;;;4978551;28;90061;-36
2023/10/29 12:10:09;;;;;;;5.47;1.65;;;14.80;99.90;;;;;;4985156;28;89928;-34
2023/10/29 12:12:35;;;;;;;3.13;1.33;;;14.80;99.90;;;;;;4978196;28;90238;-33
2023/10/29 12:15:02;;;;;;;6.15;1.67;;;14.80;99.90;;;;;;4977507;28;89619;-32
2023/10/29 12:17:28;;;;;;;7.57;1.70;;;14.70;99.90;;;;;;4978372;28;89063;-33
2023/10/29 12:19:54;;;;;;;6.78;1.52;;;14.70;99.90;;;;;;4977382;28;88977;-35
2023/10/29 12:22:21;;;;;;;5.85;1.42;;;14.70;99.90;;;;;;4994209;28;89872;-33
2023/10/29 12:24:53;;;;;;;3.38;1.40;;;14.70;99.90;;;;;;4996276;28;89762;-36
2023/10/29 12:27:21;;;;;;;5.68;1.63;;;14.70;99.90;;;;;;4979493;28;89003;-35
2023/10/29 12:29:47;;;;;;;7.80;1.88;;;14.70;99.90;;;;;;4989446;28;89059;-34
2023/10/29 12:32:23;;;;;;;6.57;1.92;;;14.60;99.90;;;;;;4995208;28;89963;-32
2023/10/29 12:34:51;;;;;;;2.97;1.55;;;14.60;99.90;;;;;;4996301;28;89850;-37
2023/10/29 12:37:20;;;;;;;3.08;1.65;;;14.60;99.90;;;;;;4983862;28;89093;-34
2023/10/29 12:39:47;;;;;;;11.82;2.10;;;14.60;99.90;;;;;;4982848;28;89738;-33
2023/10/29 12:42:13;;;;;;;3.20;1.48;;;14.50;99.90;;;;;;4983588;28;89146;-34
2023/10/29 12:44:38;;;;;;;11.13;2.75;;;14.60;99.90;;;;;;4996339;28;88700;-35
2023/10/29 12:47:06;;;;;;;11.45;2.80;;;14.50;99.90;;;;;;4996957;28;89747;-34
2023/10/29 12:49:33;;;;;;;3.70;1.63;;;14.60;99.90;;;;;;4994748;28;88390;-34